sensor_id;sensor_type;location;lat;lon;timestamp;P1;durP1;ratioP1;P2;durP2;ratioP2
22871;SDS011;11603;44.910;8.630;2023-03-01T00:00:53;35.00;;;23.88;;
22871;SDS011;11603;44.910;8.630;2023-03-01T00:03:18;31.98;;;22.95;;
22871;SDS011;11603;44.910;8.630;2023-03-01T00:05:47;35.95;;;23.38;;
22871;SDS011;11603;44.910;8.630;2023-03-01T00:08:12;36.53;;;25.30;;
22871;SDS011;11603;44.910;8.630;2023-03-01T00:10:38;34.45;;;25.05;;
22871;SDS011;11603;44.910;8.630;2023-03-01T00:13:04;36.20;;;23.30;;
22871;SDS011;11603;44.910;8.630;2023-03-01T00:15:30;33.58;;;23.77;;
22871;SDS011;11603;44.910;8.630;2023-03-01T00:17:57;34.65;;;23.90;;
22871;SDS011;11603;44.910;8.630;2023-03-01T00:20:22;34.58;;;23.33;;
22871;SDS011;11603;44.910;8.630;2023-03-01T00:22:48;35.22;;;23.05;;
22871;SDS011;11603;44.910;8.630;2023-03-01T00:25:13;31.05;;;23.02;;
22871;SDS011;11603;44.910;8.630;2023-03-01T00:27:39;32.03;;;22.75;;
22871;SDS011;11603;44.910;8.630;2023-03-01T00:30:05;30.98;;;23.20;;
22871;SDS011;11603;44.910;8.630;2023-03-01T00:32:31;31.30;;;22.95;;
22871;SDS011;11603;44.910;8.630;2023-03-01T00:34:56;32.95;;;24.13;;
22871;SDS011;11603;44.910;8.630;2023-03-01T00:37:22;33.22;;;23.80;;
22871;SDS011;11603;44.910;8.630;2023-03-01T00:39:49;32.53;;;23.48;;
22871;SDS011;11603;44.910;8.630;2023-03-01T00:42:15;31.75;;;23.00;;
22871;SDS011;11603;44.910;8.630;2023-03-01T00:44:41;32.10;;;22.67;;
22871;SDS011;11603;44.910;8.630;2023-03-01T00:47:07;34.15;;;23.50;;
22871;SDS011;11603;44.910;8.630;2023-03-01T00:49:33;32.42;;;23.50;;
22871;SDS011;11603;44.910;8.630;2023-03-01T00:51:59;31.80;;;23.35;;
22871;SDS011;11603;44.910;8.630;2023-03-01T00:54:24;31.83;;;23.00;;
22871;SDS011;11603;44.910;8.630;2023-03-01T00:56:50;31.63;;;23.23;;
22871;SDS011;11603;44.910;8.630;2023-03-01T00:59:15;32.92;;;23.50;;
22871;SDS011;11603;44.910;8.630;2023-03-01T01:01:41;33.17;;;23.05;;
22871;SDS011;11603;44.910;8.630;2023-03-01T01:04:07;35.63;;;23.10;;
22871;SDS011;11603;44.910;8.630;2023-03-01T01:06:37;34.25;;;24.95;;
22871;SDS011;11603;44.910;8.630;2023-03-01T01:09:07;33.10;;;23.27;;
22871;SDS011;11603;44.910;8.630;2023-03-01T01:11:34;32.33;;;23.00;;
22871;SDS011;11603;44.910;8.630;2023-03-01T01:14:02;33.78;;;24.05;;
22871;SDS011;11603;44.910;8.630;2023-03-01T01:16:28;33.90;;;23.23;;
22871;SDS011;11603;44.910;8.630;2023-03-01T01:18:55;34.97;;;24.05;;
22871;SDS011;11603;44.910;8.630;2023-03-01T01:21:22;32.95;;;24.60;;
22871;SDS011;11603;44.910;8.630;2023-03-01T01:23:50;35.03;;;25.30;;
22871;SDS011;11603;44.910;8.630;2023-03-01T01:26:18;34.08;;;23.50;;
22871;SDS011;11603;44.910;8.630;2023-03-01T01:28:46;38.92;;;24.83;;
22871;SDS011;11603;44.910;8.630;2023-03-01T01:31:12;32.45;;;24.77;;
22871;SDS011;11603;44.910;8.630;2023-03-01T01:33:38;34.90;;;25.25;;
22871;SDS011;11603;44.910;8.630;2023-03-01T01:36:04;37.95;;;25.02;;
22871;SDS011;11603;44.910;8.630;2023-03-01T01:38:31;34.78;;;25.75;;
22871;SDS011;11603;44.910;8.630;2023-03-01T01:40:57;36.20;;;24.70;;
22871;SDS011;11603;44.910;8.630;2023-03-01T01:43:24;35.67;;;26.23;;
22871;SDS011;11603;44.910;8.630;2023-03-01T01:46:01;35.85;;;25.23;;
22871;SDS011;11603;44.910;8.630;2023-03-01T01:48:52;34.63;;;24.98;;
22871;SDS011;11603;44.910;8.630;2023-03-01T01:51:23;35.65;;;24.63;;
22871;SDS011;11603;44.910;8.630;2023-03-01T01:53:53;38.13;;;25.48;;
22871;SDS011;11603;44.910;8.630;2023-03-01T01:56:24;35.45;;;24.58;;
22871;SDS011;11603;44.910;8.630;2023-03-01T01:58:51;39.05;;;26.15;;
22871;SDS011;11603;44.910;8.630;2023-03-01T02:01:18;37.47;;;26.27;;
22871;SDS011;11603;44.910;8.630;2023-03-01T02:03:44;39.03;;;26.70;;
22871;SDS011;11603;44.910;8.630;2023-03-01T02:08:44;39.03;;;27.48;;
22871;SDS011;11603;44.910;8.630;2023-03-01T02:11:12;40.53;;;26.42;;
22871;SDS011;11603;44.910;8.630;2023-03-01T02:13:40;37.60;;;26.55;;
22871;SDS011;11603;44.910;8.630;2023-03-01T02:16:11;38.03;;;27.02;;
22871;SDS011;11603;44.910;8.630;2023-03-01T02:18:39;39.03;;;26.60;;
22871;SDS011;11603;44.910;8.630;2023-03-01T02:24:02;34.28;;;25.95;;
22871;SDS011;11603;44.910;8.630;2023-03-01T02:26:42;35.38;;;26.45;;
22871;SDS011;11603;44.910;8.630;2023-03-01T02:29:11;38.58;;;25.95;;
22871;SDS011;11603;44.910;8.630;2023-03-01T02:31:37;42.58;;;27.95;;
22871;SDS011;11603;44.910;8.630;2023-03-01T02:34:12;40.20;;;27.15;;
22871;SDS011;11603;44.910;8.630;2023-03-01T02:36:53;39.08;;;26.88;;
22871;SDS011;11603;44.910;8.630;2023-03-01T02:39:25;39.25;;;26.80;;
22871;SDS011;11603;44.910;8.630;2023-03-01T02:41:56;39.55;;;26.30;;
22871;SDS011;11603;44.910;8.630;2023-03-01T02:44:22;39.58;;;27.15;;
22871;SDS011;11603;44.910;8.630;2023-03-01T02:46:53;40.75;;;26.92;;
22871;SDS011;11603;44.910;8.630;2023-03-01T02:49:29;40.15;;;28.55;;
22871;SDS011;11603;44.910;8.630;2023-03-01T02:54:33;40.53;;;28.25;;
22871;SDS011;11603;44.910;8.630;2023-03-01T02:57:13;41.85;;;28.60;;
22871;SDS011;11603;44.910;8.630;2023-03-01T02:59:39;40.35;;;28.40;;
22871;SDS011;11603;44.910;8.630;2023-03-01T03:02:08;42.08;;;30.10;;
22871;SDS011;11603;44.910;8.630;2023-03-01T03:05:26;35.53;;;27.63;;
22871;SDS011;11603;44.910;8.630;2023-03-01T03:07:56;39.17;;;27.55;;
22871;SDS011;11603;44.910;8.630;2023-03-01T03:10:26;39.15;;;28.23;;
22871;SDS011;11603;44.910;8.630;2023-03-01T03:12:55;43.03;;;28.67;;
22871;SDS011;11603;44.910;8.630;2023-03-01T03:15:32;40.30;;;28.27;;
22871;SDS011;11603;44.910;8.630;2023-03-01T03:18:01;39.28;;;27.67;;
22871;SDS011;11603;44.910;8.630;2023-03-01T03:20:27;40.40;;;28.77;;
22871;SDS011;11603;44.910;8.630;2023-03-01T03:22:54;40.63;;;28.65;;
22871;SDS011;11603;44.910;8.630;2023-03-01T03:25:23;40.42;;;28.33;;
22871;SDS011;11603;44.910;8.630;2023-03-01T03:27:50;40.25;;;26.70;;
22871;SDS011;11603;44.910;8.630;2023-03-01T03:30:22;42.00;;;29.02;;
22871;SDS011;11603;44.910;8.630;2023-03-01T03:32:50;43.72;;;29.08;;
22871;SDS011;11603;44.910;8.630;2023-03-01T03:35:21;42.67;;;29.83;;
22871;SDS011;11603;44.910;8.630;2023-03-01T03:37:49;41.95;;;28.15;;
22871;SDS011;11603;44.910;8.630;2023-03-01T03:40:29;44.58;;;30.00;;
22871;SDS011;11603;44.910;8.630;2023-03-01T03:42:55;46.15;;;29.73;;
22871;SDS011;11603;44.910;8.630;2023-03-01T03:45:20;42.60;;;29.52;;
22871;SDS011;11603;44.910;8.630;2023-03-01T03:47:46;43.65;;;29.67;;
22871;SDS011;11603;44.910;8.630;2023-03-01T03:50:12;44.10;;;29.23;;
22871;SDS011;11603;44.910;8.630;2023-03-01T03:52:40;44.92;;;30.25;;
22871;SDS011;11603;44.910;8.630;2023-03-01T03:55:06;44.88;;;28.98;;
22871;SDS011;11603;44.910;8.630;2023-03-01T03:57:34;43.75;;;29.13;;
22871;SDS011;11603;44.910;8.630;2023-03-01T04:00:00;44.15;;;29.88;;
22871;SDS011;11603;44.910;8.630;2023-03-01T04:02:37;43.10;;;29.63;;
22871;SDS011;11603;44.910;8.630;2023-03-01T04:05:03;42.03;;;27.95;;
22871;SDS011;11603;44.910;8.630;2023-03-01T04:07:29;44.72;;;29.90;;
22871;SDS011;11603;44.910;8.630;2023-03-01T04:09:55;44.63;;;29.40;;
22871;SDS011;11603;44.910;8.630;2023-03-01T04:12:25;44.40;;;31.63;;
22871;SDS011;11603;44.910;8.630;2023-03-01T04:14:50;44.15;;;29.70;;
22871;SDS011;11603;44.910;8.630;2023-03-01T04:17:16;43.80;;;28.98;;
22871;SDS011;11603;44.910;8.630;2023-03-01T04:19:41;46.42;;;30.73;;
22871;SDS011;11603;44.910;8.630;2023-03-01T04:22:09;47.00;;;30.00;;
22871;SDS011;11603;44.910;8.630;2023-03-01T04:24:36;45.50;;;31.00;;
22871;SDS011;11603;44.910;8.630;2023-03-01T04:27:02;43.55;;;30.17;;
22871;SDS011;11603;44.910;8.630;2023-03-01T04:29:27;43.97;;;30.52;;
22871;SDS011;11603;44.910;8.630;2023-03-01T04:31:53;43.38;;;31.00;;
22871;SDS011;11603;44.910;8.630;2023-03-01T04:34:19;47.15;;;30.55;;
22871;SDS011;11603;44.910;8.630;2023-03-01T04:36:44;44.20;;;31.35;;
22871;SDS011;11603;44.910;8.630;2023-03-01T04:39:10;42.20;;;29.80;;
22871;SDS011;11603;44.910;8.630;2023-03-01T04:41:39;41.50;;;30.20;;
22871;SDS011;11603;44.910;8.630;2023-03-01T04:44:05;44.53;;;32.08;;
22871;SDS011;11603;44.910;8.630;2023-03-01T04:46:32;42.78;;;30.80;;
22871;SDS011;11603;44.910;8.630;2023-03-01T04:48:57;42.88;;;30.25;;
22871;SDS011;11603;44.910;8.630;2023-03-01T04:51:23;44.95;;;30.88;;
22871;SDS011;11603;44.910;8.630;2023-03-01T04:53:49;43.45;;;29.48;;
22871;SDS011;11603;44.910;8.630;2023-03-01T04:56:15;47.42;;;31.45;;
22871;SDS011;11603;44.910;8.630;2023-03-01T04:58:43;48.63;;;31.60;;
22871;SDS011;11603;44.910;8.630;2023-03-01T05:01:12;46.72;;;31.13;;
22871;SDS011;11603;44.910;8.630;2023-03-01T05:03:41;47.42;;;31.08;;
22871;SDS011;11603;44.910;8.630;2023-03-01T05:06:10;44.35;;;29.90;;
22871;SDS011;11603;44.910;8.630;2023-03-01T05:08:37;41.88;;;30.42;;
22871;SDS011;11603;44.910;8.630;2023-03-01T05:11:04;41.85;;;29.95;;
22871;SDS011;11603;44.910;8.630;2023-03-01T05:13:30;42.67;;;30.75;;
22871;SDS011;11603;44.910;8.630;2023-03-01T05:15:57;41.33;;;29.90;;
22871;SDS011;11603;44.910;8.630;2023-03-01T05:18:25;43.60;;;31.02;;
22871;SDS011;11603;44.910;8.630;2023-03-01T05:20:52;42.42;;;29.55;;
22871;SDS011;11603;44.910;8.630;2023-03-01T05:23:21;43.60;;;30.70;;
22871;SDS011;11603;44.910;8.630;2023-03-01T05:25:47;44.50;;;30.38;;
22871;SDS011;11603;44.910;8.630;2023-03-01T05:28:14;46.15;;;31.13;;
22871;SDS011;11603;44.910;8.630;2023-03-01T05:30:40;45.92;;;31.40;;
22871;SDS011;11603;44.910;8.630;2023-03-01T05:33:08;44.28;;;30.65;;
22871;SDS011;11603;44.910;8.630;2023-03-01T05:35:40;45.35;;;31.30;;
22871;SDS011;11603;44.910;8.630;2023-03-01T05:38:08;44.38;;;31.25;;
22871;SDS011;11603;44.910;8.630;2023-03-01T05:40:34;48.10;;;31.05;;
22871;SDS011;11603;44.910;8.630;2023-03-01T05:43:00;45.08;;;31.33;;
22871;SDS011;11603;44.910;8.630;2023-03-01T05:45:27;45.47;;;30.20;;
22871;SDS011;11603;44.910;8.630;2023-03-01T05:47:52;48.70;;;31.65;;
22871;SDS011;11603;44.910;8.630;2023-03-01T05:50:24;44.42;;;30.42;;
22871;SDS011;11603;44.910;8.630;2023-03-01T05:53:02;45.75;;;30.25;;
22871;SDS011;11603;44.910;8.630;2023-03-01T05:55:48;41.70;;;29.35;;
22871;SDS011;11603;44.910;8.630;2023-03-01T05:58:16;44.00;;;30.63;;
22871;SDS011;11603;44.910;8.630;2023-03-01T06:00:44;45.08;;;30.58;;
22871;SDS011;11603;44.910;8.630;2023-03-01T06:03:12;47.65;;;31.80;;
22871;SDS011;11603;44.910;8.630;2023-03-01T06:05:39;45.53;;;32.63;;
22871;SDS011;11603;44.910;8.630;2023-03-01T06:08:06;45.58;;;31.50;;
22871;SDS011;11603;44.910;8.630;2023-03-01T06:10:31;43.97;;;31.95;;
22871;SDS011;11603;44.910;8.630;2023-03-01T06:12:57;54.00;;;32.55;;
22871;SDS011;11603;44.910;8.630;2023-03-01T06:15:23;45.75;;;30.75;;
22871;SDS011;11603;44.910;8.630;2023-03-01T06:17:50;42.92;;;30.10;;
22871;SDS011;11603;44.910;8.630;2023-03-01T06:20:19;48.72;;;31.35;;
22871;SDS011;11603;44.910;8.630;2023-03-01T06:22:46;44.20;;;30.48;;
22871;SDS011;11603;44.910;8.630;2023-03-01T06:25:14;46.03;;;30.63;;
22871;SDS011;11603;44.910;8.630;2023-03-01T06:27:42;48.88;;;31.58;;
22871;SDS011;11603;44.910;8.630;2023-03-01T06:30:08;45.80;;;30.27;;
22871;SDS011;11603;44.910;8.630;2023-03-01T06:32:36;48.35;;;31.30;;
22871;SDS011;11603;44.910;8.630;2023-03-01T06:35:02;48.55;;;31.60;;
22871;SDS011;11603;44.910;8.630;2023-03-01T06:37:28;47.22;;;30.80;;
22871;SDS011;11603;44.910;8.630;2023-03-01T06:39:54;44.42;;;31.00;;
22871;SDS011;11603;44.910;8.630;2023-03-01T06:42:19;50.97;;;30.85;;
22871;SDS011;11603;44.910;8.630;2023-03-01T06:44:45;44.88;;;29.95;;
22871;SDS011;11603;44.910;8.630;2023-03-01T06:47:11;43.40;;;28.00;;
22871;SDS011;11603;44.910;8.630;2023-03-01T06:49:36;45.55;;;29.58;;
22871;SDS011;11603;44.910;8.630;2023-03-01T06:52:02;43.45;;;28.25;;
22871;SDS011;11603;44.910;8.630;2023-03-01T06:54:27;43.63;;;28.85;;
22871;SDS011;11603;44.910;8.630;2023-03-01T06:56:53;40.72;;;28.02;;
22871;SDS011;11603;44.910;8.630;2023-03-01T06:59:18;38.95;;;27.48;;
22871;SDS011;11603;44.910;8.630;2023-03-01T07:01:44;37.90;;;26.77;;
22871;SDS011;11603;44.910;8.630;2023-03-01T07:04:10;42.65;;;27.60;;
22871;SDS011;11603;44.910;8.630;2023-03-01T07:06:37;41.22;;;28.15;;
22871;SDS011;11603;44.910;8.630;2023-03-01T07:09:02;38.47;;;27.17;;
22871;SDS011;11603;44.910;8.630;2023-03-01T07:11:28;40.58;;;26.75;;
22871;SDS011;11603;44.910;8.630;2023-03-01T07:13:53;45.90;;;28.33;;
22871;SDS011;11603;44.910;8.630;2023-03-01T07:16:20;49.20;;;27.70;;
22871;SDS011;11603;44.910;8.630;2023-03-01T07:18:46;44.22;;;28.00;;
22871;SDS011;11603;44.910;8.630;2023-03-01T07:21:12;37.75;;;26.92;;
22871;SDS011;11603;44.910;8.630;2023-03-01T07:23:38;36.78;;;26.35;;
22871;SDS011;11603;44.910;8.630;2023-03-01T07:26:05;39.85;;;27.90;;
22871;SDS011;11603;44.910;8.630;2023-03-01T07:28:30;38.65;;;26.65;;
22871;SDS011;11603;44.910;8.630;2023-03-01T07:31:00;40.78;;;27.63;;
22871;SDS011;11603;44.910;8.630;2023-03-01T07:33:27;40.13;;;26.80;;
22871;SDS011;11603;44.910;8.630;2023-03-01T07:35:56;38.35;;;24.98;;
22871;SDS011;11603;44.910;8.630;2023-03-01T07:38:23;39.05;;;25.80;;
22871;SDS011;11603;44.910;8.630;2023-03-01T07:40:48;39.38;;;25.45;;
22871;SDS011;11603;44.910;8.630;2023-03-01T07:43:14;38.92;;;25.25;;
22871;SDS011;11603;44.910;8.630;2023-03-01T07:45:39;36.70;;;24.98;;
22871;SDS011;11603;44.910;8.630;2023-03-01T07:48:05;36.05;;;25.25;;
22871;SDS011;11603;44.910;8.630;2023-03-01T07:50:30;37.47;;;25.85;;
22871;SDS011;11603;44.910;8.630;2023-03-01T07:52:55;43.38;;;25.85;;
22871;SDS011;11603;44.910;8.630;2023-03-01T07:55:21;36.58;;;23.27;;
22871;SDS011;11603;44.910;8.630;2023-03-01T07:57:48;35.60;;;23.45;;
22871;SDS011;11603;44.910;8.630;2023-03-01T08:00:13;38.97;;;25.20;;
22871;SDS011;11603;44.910;8.630;2023-03-01T08:02:39;34.67;;;24.13;;
22871;SDS011;11603;44.910;8.630;2023-03-01T08:05:07;33.15;;;23.73;;
22871;SDS011;11603;44.910;8.630;2023-03-01T08:07:34;33.70;;;22.83;;
22871;SDS011;11603;44.910;8.630;2023-03-01T08:09:59;36.33;;;23.23;;
22871;SDS011;11603;44.910;8.630;2023-03-01T08:12:25;34.75;;;24.15;;
22871;SDS011;11603;44.910;8.630;2023-03-01T08:14:53;34.58;;;23.73;;
22871;SDS011;11603;44.910;8.630;2023-03-01T08:17:20;32.97;;;23.35;;
22871;SDS011;11603;44.910;8.630;2023-03-01T08:19:45;34.70;;;24.17;;
22871;SDS011;11603;44.910;8.630;2023-03-01T08:22:11;34.30;;;23.80;;
22871;SDS011;11603;44.910;8.630;2023-03-01T08:24:36;31.02;;;22.42;;
22871;SDS011;11603;44.910;8.630;2023-03-01T08:27:03;30.38;;;23.13;;
22871;SDS011;11603;44.910;8.630;2023-03-01T08:29:32;34.00;;;22.77;;
22871;SDS011;11603;44.910;8.630;2023-03-01T08:31:58;34.95;;;22.55;;
22871;SDS011;11603;44.910;8.630;2023-03-01T08:34:24;31.63;;;22.73;;
22871;SDS011;11603;44.910;8.630;2023-03-01T08:36:50;31.45;;;22.67;;
22871;SDS011;11603;44.910;8.630;2023-03-01T08:39:17;33.95;;;21.83;;
22871;SDS011;11603;44.910;8.630;2023-03-01T08:41:44;31.75;;;21.65;;
22871;SDS011;11603;44.910;8.630;2023-03-01T08:44:11;34.80;;;22.48;;
22871;SDS011;11603;44.910;8.630;2023-03-01T08:46:39;33.58;;;22.80;;
22871;SDS011;11603;44.910;8.630;2023-03-01T08:49:11;31.30;;;22.25;;
22871;SDS011;11603;44.910;8.630;2023-03-01T08:51:45;40.03;;;23.95;;
22871;SDS011;11603;44.910;8.630;2023-03-01T08:54:14;33.03;;;22.00;;
22871;SDS011;11603;44.910;8.630;2023-03-01T08:56:41;32.65;;;22.85;;
22871;SDS011;11603;44.910;8.630;2023-03-01T08:59:07;34.85;;;23.38;;
22871;SDS011;11603;44.910;8.630;2023-03-01T09:01:32;30.98;;;22.60;;
22871;SDS011;11603;44.910;8.630;2023-03-01T09:03:59;32.20;;;21.88;;
22871;SDS011;11603;44.910;8.630;2023-03-01T09:06:25;32.58;;;22.25;;
22871;SDS011;11603;44.910;8.630;2023-03-01T09:08:50;28.77;;;21.38;;
22871;SDS011;11603;44.910;8.630;2023-03-01T09:11:17;31.25;;;22.13;;
22871;SDS011;11603;44.910;8.630;2023-03-01T09:13:45;34.28;;;21.83;;
22871;SDS011;11603;44.910;8.630;2023-03-01T09:16:12;32.70;;;21.50;;
22871;SDS011;11603;44.910;8.630;2023-03-01T09:18:39;30.85;;;22.10;;
22871;SDS011;11603;44.910;8.630;2023-03-01T09:21:06;30.25;;;21.98;;
22871;SDS011;11603;44.910;8.630;2023-03-01T09:23:34;30.30;;;21.67;;
22871;SDS011;11603;44.910;8.630;2023-03-01T09:26:05;34.65;;;22.33;;
22871;SDS011;11603;44.910;8.630;2023-03-01T09:28:34;34.75;;;21.25;;
22871;SDS011;11603;44.910;8.630;2023-03-01T09:31:01;32.80;;;21.02;;
22871;SDS011;11603;44.910;8.630;2023-03-01T09:33:27;31.08;;;22.35;;
22871;SDS011;11603;44.910;8.630;2023-03-01T09:36:00;28.27;;;21.05;;
22871;SDS011;11603;44.910;8.630;2023-03-01T09:38:28;29.48;;;20.88;;
22871;SDS011;11603;44.910;8.630;2023-03-01T09:40:54;25.55;;;18.05;;
22871;SDS011;11603;44.910;8.630;2023-03-01T09:46:08;32.20;;;20.15;;
22871;SDS011;11603;44.910;8.630;2023-03-01T09:48:52;29.13;;;20.15;;
22871;SDS011;11603;44.910;8.630;2023-03-01T09:51:29;32.78;;;21.13;;
22871;SDS011;11603;44.910;8.630;2023-03-01T09:53:57;27.48;;;20.55;;
22871;SDS011;11603;44.910;8.630;2023-03-01T09:56:32;29.75;;;21.38;;
22871;SDS011;11603;44.910;8.630;2023-03-01T10:07:17;30.17;;;21.92;;
22871;SDS011;11603;44.910;8.630;2023-03-01T10:09:52;37.65;;;22.73;;
22871;SDS011;11603;44.910;8.630;2023-03-01T10:12:20;31.23;;;22.45;;
22871;SDS011;11603;44.910;8.630;2023-03-01T10:20:08;30.15;;;21.58;;
22871;SDS011;11603;44.910;8.630;2023-03-01T10:22:56;30.38;;;21.08;;
22871;SDS011;11603;44.910;8.630;2023-03-01T10:31:06;28.35;;;19.90;;
22871;SDS011;11603;44.910;8.630;2023-03-01T10:33:40;31.38;;;20.85;;
22871;SDS011;11603;44.910;8.630;2023-03-01T10:36:06;32.95;;;20.35;;
22871;SDS011;11603;44.910;8.630;2023-03-01T10:38:46;29.85;;;19.88;;
22871;SDS011;11603;44.910;8.630;2023-03-01T10:41:23;32.38;;;20.35;;
22871;SDS011;11603;44.910;8.630;2023-03-01T10:43:57;30.13;;;19.02;;
22871;SDS011;11603;44.910;8.630;2023-03-01T10:46:30;29.30;;;19.25;;
22871;SDS011;11603;44.910;8.630;2023-03-01T10:49:18;29.25;;;19.23;;
22871;SDS011;11603;44.910;8.630;2023-03-01T10:51:46;26.38;;;18.58;;
22871;SDS011;11603;44.910;8.630;2023-03-01T10:54:34;26.33;;;18.77;;
22871;SDS011;11603;44.910;8.630;2023-03-01T10:57:00;27.10;;;19.13;;
22871;SDS011;11603;44.910;8.630;2023-03-01T10:59:32;29.30;;;18.75;;
22871;SDS011;11603;44.910;8.630;2023-03-01T11:04:34;26.27;;;19.98;;
22871;SDS011;11603;44.910;8.630;2023-03-01T11:07:00;26.52;;;19.13;;
22871;SDS011;11603;44.910;8.630;2023-03-01T11:09:30;27.00;;;18.55;;
22871;SDS011;11603;44.910;8.630;2023-03-01T11:12:03;28.85;;;20.40;;
22871;SDS011;11603;44.910;8.630;2023-03-01T11:14:33;32.08;;;19.35;;
22871;SDS011;11603;44.910;8.630;2023-03-01T11:17:04;28.35;;;19.45;;
22871;SDS011;11603;44.910;8.630;2023-03-01T11:20:46;26.48;;;19.60;;
22871;SDS011;11603;44.910;8.630;2023-03-01T11:22:53;29.55;;;20.08;;
22871;SDS011;11603;44.910;8.630;2023-03-01T11:25:24;25.23;;;19.15;;
22871;SDS011;11603;44.910;8.630;2023-03-01T11:27:52;26.40;;;18.58;;
22871;SDS011;11603;44.910;8.630;2023-03-01T11:30:29;26.35;;;19.40;;
22871;SDS011;11603;44.910;8.630;2023-03-01T11:33:10;28.27;;;18.08;;
22871;SDS011;11603;44.910;8.630;2023-03-01T11:35:46;25.35;;;18.27;;
22871;SDS011;11603;44.910;8.630;2023-03-01T11:38:22;29.70;;;18.35;;
22871;SDS011;11603;44.910;8.630;2023-03-01T11:43:33;28.08;;;18.77;;
22871;SDS011;11603;44.910;8.630;2023-03-01T12:00:51;23.52;;;17.50;;
22871;SDS011;11603;44.910;8.630;2023-03-01T12:08:52;24.45;;;17.85;;
22871;SDS011;11603;44.910;8.630;2023-03-01T12:25:29;27.42;;;18.70;;
22871;SDS011;11603;44.910;8.630;2023-03-01T12:33:50;24.45;;;17.98;;
22871;SDS011;11603;44.910;8.630;2023-03-01T12:39:16;24.13;;;17.20;;
22871;SDS011;11603;44.910;8.630;2023-03-01T12:50:11;24.55;;;17.80;;
22871;SDS011;11603;44.910;8.630;2023-03-01T12:52:53;25.08;;;17.98;;
22871;SDS011;11603;44.910;8.630;2023-03-01T12:55:29;26.50;;;17.92;;
22871;SDS011;11603;44.910;8.630;2023-03-01T13:00:27;26.52;;;18.08;;
22871;SDS011;11603;44.910;8.630;2023-03-01T13:06:20;26.40;;;17.73;;
22871;SDS011;11603;44.910;8.630;2023-03-01T13:11:35;29.38;;;17.27;;
22871;SDS011;11603;44.910;8.630;2023-03-01T13:16:51;25.85;;;18.20;;
22871;SDS011;11603;44.910;8.630;2023-03-01T13:19:18;27.67;;;19.40;;
22871;SDS011;11603;44.910;8.630;2023-03-01T13:21:46;30.27;;;19.80;;
22871;SDS011;11603;44.910;8.630;2023-03-01T13:24:26;29.25;;;18.90;;
22871;SDS011;11603;44.910;8.630;2023-03-01T13:29:30;27.58;;;19.30;;
22871;SDS011;11603;44.910;8.630;2023-03-01T13:32:25;26.35;;;19.10;;
22871;SDS011;11603;44.910;8.630;2023-03-01T13:35:00;28.40;;;19.98;;
22871;SDS011;11603;44.910;8.630;2023-03-01T13:37:28;30.33;;;20.17;;
22871;SDS011;11603;44.910;8.630;2023-03-01T13:40:03;29.85;;;20.20;;
22871;SDS011;11603;44.910;8.630;2023-03-01T13:42:43;25.75;;;19.48;;
22871;SDS011;11603;44.910;8.630;2023-03-01T13:47:53;25.27;;;19.27;;
22871;SDS011;11603;44.910;8.630;2023-03-01T13:50:24;28.45;;;20.08;;
22871;SDS011;11603;44.910;8.630;2023-03-01T13:52:56;30.00;;;20.48;;
22871;SDS011;11603;44.910;8.630;2023-03-01T13:55:38;32.53;;;20.10;;
22871;SDS011;11603;44.910;8.630;2023-03-01T13:58:22;31.45;;;20.20;;
22871;SDS011;11603;44.910;8.630;2023-03-01T14:01:02;26.55;;;19.73;;
22871;SDS011;11603;44.910;8.630;2023-03-01T14:03:30;26.02;;;18.90;;
22871;SDS011;11603;44.910;8.630;2023-03-01T14:08:26;25.00;;;17.98;;
22871;SDS011;11603;44.910;8.630;2023-03-01T14:13:35;31.33;;;19.92;;
22871;SDS011;11603;44.910;8.630;2023-03-01T14:16:08;30.02;;;20.23;;
22871;SDS011;11603;44.910;8.630;2023-03-01T14:18:56;26.10;;;18.88;;
22871;SDS011;11603;44.910;8.630;2023-03-01T14:21:42;27.52;;;19.20;;
22871;SDS011;11603;44.910;8.630;2023-03-01T14:24:18;31.27;;;19.60;;
22871;SDS011;11603;44.910;8.630;2023-03-01T14:26:47;28.10;;;21.08;;
22871;SDS011;11603;44.910;8.630;2023-03-01T14:32:26;31.80;;;22.23;;
22871;SDS011;11603;44.910;8.630;2023-03-01T14:34:53;39.83;;;22.35;;
22871;SDS011;11603;44.910;8.630;2023-03-01T14:37:31;30.85;;;20.05;;
22871;SDS011;11603;44.910;8.630;2023-03-01T14:39:59;31.58;;;18.83;;
22871;SDS011;11603;44.910;8.630;2023-03-01T14:42:27;30.67;;;20.95;;
22871;SDS011;11603;44.910;8.630;2023-03-01T14:44:56;26.60;;;19.65;;
22871;SDS011;11603;44.910;8.630;2023-03-01T14:47:27;28.38;;;20.05;;
22871;SDS011;11603;44.910;8.630;2023-03-01T14:50:02;30.65;;;19.92;;
22871;SDS011;11603;44.910;8.630;2023-03-01T14:52:42;25.70;;;19.98;;
22871;SDS011;11603;44.910;8.630;2023-03-01T14:55:18;26.23;;;19.50;;
22871;SDS011;11603;44.910;8.630;2023-03-01T14:57:53;26.08;;;17.08;;
22871;SDS011;11603;44.910;8.630;2023-03-01T15:00:20;30.02;;;20.67;;
22871;SDS011;11603;44.910;8.630;2023-03-01T15:02:48;28.02;;;19.70;;
22871;SDS011;11603;44.910;8.630;2023-03-01T15:05:17;24.40;;;18.23;;
22871;SDS011;11603;44.910;8.630;2023-03-01T15:07:47;32.38;;;19.95;;
22871;SDS011;11603;44.910;8.630;2023-03-01T15:10:19;29.65;;;19.27;;
22871;SDS011;11603;44.910;8.630;2023-03-01T15:12:47;29.52;;;20.38;;
22871;SDS011;11603;44.910;8.630;2023-03-01T15:15:30;28.30;;;19.65;;
22871;SDS011;11603;44.910;8.630;2023-03-01T15:17:59;25.20;;;18.95;;
22871;SDS011;11603;44.910;8.630;2023-03-01T15:20:27;27.17;;;18.08;;
22871;SDS011;11603;44.910;8.630;2023-03-01T15:22:55;27.98;;;18.73;;
22871;SDS011;11603;44.910;8.630;2023-03-01T15:25:23;28.73;;;19.35;;
22871;SDS011;11603;44.910;8.630;2023-03-01T15:27:52;24.42;;;18.08;;
22871;SDS011;11603;44.910;8.630;2023-03-01T15:30:20;26.55;;;18.95;;
22871;SDS011;11603;44.910;8.630;2023-03-01T15:33:15;29.35;;;19.77;;
22871;SDS011;11603;44.910;8.630;2023-03-01T15:35:53;29.58;;;19.77;;
22871;SDS011;11603;44.910;8.630;2023-03-01T15:38:49;28.58;;;20.17;;
22871;SDS011;11603;44.910;8.630;2023-03-01T15:41:26;31.73;;;20.05;;
22871;SDS011;11603;44.910;8.630;2023-03-01T15:43:57;33.03;;;20.33;;
22871;SDS011;11603;44.910;8.630;2023-03-01T15:46:39;27.75;;;18.30;;
22871;SDS011;11603;44.910;8.630;2023-03-01T15:49:05;26.00;;;18.35;;
22871;SDS011;11603;44.910;8.630;2023-03-01T15:51:51;25.70;;;17.67;;
22871;SDS011;11603;44.910;8.630;2023-03-01T15:54:21;28.23;;;18.35;;
22871;SDS011;11603;44.910;8.630;2023-03-01T15:56:50;29.15;;;19.95;;
22871;SDS011;11603;44.910;8.630;2023-03-01T15:59:16;29.20;;;20.45;;
22871;SDS011;11603;44.910;8.630;2023-03-01T16:01:42;33.13;;;20.52;;
22871;SDS011;11603;44.910;8.630;2023-03-01T16:04:12;28.95;;;20.38;;
22871;SDS011;11603;44.910;8.630;2023-03-01T16:06:45;33.03;;;20.90;;
22871;SDS011;11603;44.910;8.630;2023-03-01T16:09:23;29.52;;;19.73;;
22871;SDS011;11603;44.910;8.630;2023-03-01T16:11:50;29.58;;;19.05;;
22871;SDS011;11603;44.910;8.630;2023-03-01T16:14:16;31.20;;;20.63;;
22871;SDS011;11603;44.910;8.630;2023-03-01T16:16:43;28.98;;;19.50;;
22871;SDS011;11603;44.910;8.630;2023-03-01T16:19:09;29.42;;;20.20;;
22871;SDS011;11603;44.910;8.630;2023-03-01T16:21:35;29.45;;;19.17;;
22871;SDS011;11603;44.910;8.630;2023-03-01T16:24:01;32.08;;;20.45;;
22871;SDS011;11603;44.910;8.630;2023-03-01T16:26:27;36.35;;;20.67;;